Time;durP1;ratioP1;P1;durP2;ratioP2;P2;SDS_P1;SDS_P2;PMS_P1;PMS_P2;Temp;Humidity;BMP_temperature;BMP_pressure;BME280_temperature;BME280_humidity;BME280_pressure;Samples;Min_cycle;Max_cycle;Signal;HPM_P1;HPM_P2
2022/08/25 00:01:48;;;;;;;23.03;11.07;;;;;;;20.95;100.00;98820.81;4898295;29;20216;-82
2022/08/25 00:04:15;;;;;;;23.30;10.87;;;;;;;20.65;100.00;98781.56;4898276;29;20170;-82
2022/08/25 00:06:42;;;;;;;25.47;11.07;;;;;;;21.31;100.00;98858.34;4897877;29;20193;-82
2022/08/25 00:09:10;;;;;;;22.10;10.53;;;;;;;20.95;100.00;98801.94;4898127;29;20178;-82
2022/08/25 00:11:38;;;;;;;22.70;10.87;;;;;;;19.51;100.00;98552.63;4898322;29;20213;-82
2022/08/25 00:14:08;;;;;;;27.07;10.87;;;;;;;21.42;100.00;98853.09;4898202;29;20167;-82
2022/08/25 00:16:33;;;;;;;23.73;10.90;;;;;;;17.88;100.00;98261.91;4898212;29;20194;-82
2022/08/25 00:19:04;;;;;;;27.70;9.90;;;;;;;21.36;100.00;98872.03;4897416;29;20210;-83
2022/08/25 00:21:30;;;;;;;26.40;11.17;;;;;;;20.79;100.00;98748.88;4897826;29;20169;-83
2022/08/25 00:23:57;;;;;;;25.63;11.20;;;;;;;20.58;100.00;98727.59;4897732;29;20267;-82
2022/08/25 00:26:23;;;;;;;21.03;11.30;;;;;;;21.54;100.00;98889.88;4897602;29;20170;-82
2022/08/25 00:28:48;;;;;;;27.10;11.60;;;;;;;19.78;100.00;98608.97;4897634;29;20174;-83
2022/08/25 00:31:17;;;;;;;23.47;10.60;;;;;;;19.33;100.00;98536.47;4912047;29;20186;-81
2022/08/25 00:33:44;;;;;;;21.73;10.87;;;;;;;21.45;100.00;98889.97;4897567;29;20174;-82
2022/08/25 00:36:11;;;;;;;24.10;11.10;;;;;;;20.24;100.00;98684.09;4897601;29;20181;-82
2022/08/25 00:38:41;;;;;;;22.97;10.43;;;;;;;20.86;100.00;98768.53;4902010;29;20235;-80
2022/08/25 00:41:10;;;;;;;20.73;9.93;;;;;;;21.43;100.00;98863.38;4902736;29;20596;-80
2022/08/25 00:43:41;;;;;;;17.33;9.47;;;;;;;21.35;100.00;98864.28;4899572;29;20683;-81
2022/08/25 00:46:16;;;;;;;22.57;9.57;;;;;;;20.31;100.00;98675.50;4897540;29;20257;-81
2022/08/25 00:48:44;;;;;;;22.23;9.87;;;;;;;18.55;100.00;98350.47;4897199;29;20175;-82
2022/08/25 00:51:13;;;;;;;22.17;9.87;;;;;;;18.54;100.00;98341.06;4897538;29;20167;-82
2022/08/25 00:53:39;;;;;;;21.30;9.73;;;;;;;21.14;100.00;98752.06;4897596;29;20167;-82
2022/08/25 00:56:05;;;;;;;20.33;9.40;;;;;;;21.75;100.00;98857.94;4896993;29;20190;-82
2022/08/25 00:58:33;;;;;;;20.73;9.50;;;;;;;21.01;100.00;98740.13;4896938;29;20737;-81
2022/08/25 01:00:59;;;;;;;18.70;9.13;;;;;;;18.57;100.00;98312.00;4896809;29;20182;-82
2022/08/25 01:03:27;;;;;;;22.83;9.20;;;;;;;20.36;100.00;98592.34;4897014;29;20186;-82
2022/08/25 01:05:54;;;;;;;19.50;8.87;;;;;;;21.20;100.00;98735.69;4896928;29;20214;-81
2022/08/25 01:08:24;;;;;;;18.43;7.27;;;;;;;21.52;100.00;98801.47;4896406;29;20163;-83
2022/08/25 01:10:50;;;;;;;18.07;8.70;;;;;;;21.76;100.00;98833.84;4897066;29;20167;-82
2022/08/25 01:13:33;;;;;;;22.53;9.07;;;;;;;21.29;100.00;98738.19;4896769;29;20268;-82
2022/08/25 01:15:59;;;;;;;22.20;8.27;;;;;;;21.18;100.00;98720.25;4896588;29;20198;-82
2022/08/25 01:18:26;;;;;;;24.23;9.37;;;;;;;21.95;100.00;98825.09;4896624;29;20179;-82
2022/08/25 01:20:56;;;;;;;20.23;8.60;;;;;;;20.85;100.00;98674.22;4896578;29;20186;-82
2022/08/25 01:23:22;;;;;;;18.23;8.33;;;;;;;21.98;100.00;98842.25;4896245;29;20198;-83
2022/08/25 01:26:00;;;;;;;21.93;8.70;;;;;;;20.56;100.00;98616.16;4896511;29;20193;-83
2022/08/25 01:28:26;;;;;;;24.03;9.30;;;;;;;20.86;100.00;98648.47;4896443;29;20266;-83
2022/08/25 01:30:52;;;;;;;18.27;8.80;;;;;;;20.69;100.00;98616.91;4896293;29;20227;-82
2022/08/25 01:33:18;;;;;;;22.47;9.40;;;;;;;20.15;100.00;98502.53;4896556;29;20197;-83
2022/08/25 01:35:45;;;;;;;16.93;8.77;;;;;;;19.49;100.00;98398.63;4896557;29;20258;-82
2022/08/25 01:38:11;;;;;;;16.43;8.43;;;;;;;19.87;100.00;98467.66;4896735;29;20654;-82
2022/08/25 01:40:38;;;;;;;21.80;8.73;;;;;;;20.06;100.00;98512.88;4896436;29;20186;-82
2022/08/25 01:43:10;;;;;;;17.53;8.03;;;;;;;22.03;100.00;98845.66;4895561;29;20207;-82
2022/08/25 01:45:38;;;;;;;21.03;8.80;;;;;;;22.17;100.00;98844.59;4895583;29;20190;-83
2022/08/25 01:48:06;;;;;;;20.07;8.60;;;;;;;18.87;100.00;98290.44;4896000;29;20175;-82
2022/08/25 01:50:32;;;;;;;21.83;8.93;;;;;;;21.05;100.00;98677.44;4896072;29;20163;-81
2022/08/25 01:53:14;;;;;;;19.80;8.23;;;;;;;19.34;100.00;98416.66;4896051;29;20628;-81
2022/08/25 01:55:51;;;;;;;19.33;8.13;;;;;;;18.53;100.00;98277.84;4879198;29;20631;-82
2022/08/25 01:58:33;;;;;;;18.73;8.20;;;;;;;21.73;100.00;98827.00;4895927;29;20233;-82
2022/08/25 02:01:01;;;;;;;17.83;8.43;;;;;;;20.03;100.00;98543.72;4896289;29;20173;-81
2022/08/25 02:03:28;;;;;;;19.87;9.00;;;;;;;19.85;100.00;98505.34;4878987;29;20526;-81
2022/08/25 02:05:55;;;;;;;19.53;8.23;;;;;;;20.24;100.00;98568.41;4897472;29;20269;-81
2022/08/25 02:08:22;;;;;;;25.33;8.93;;;;;;;20.42;100.00;98589.72;4896510;29;20171;-80
2022/08/25 02:10:48;;;;;;;17.67;7.70;;;;;;;19.91;100.00;98518.16;4896469;29;20167;-82
2022/08/25 02:13:14;;;;;;;14.83;7.93;;;;;;;20.06;100.00;98528.28;4896552;29;20197;-81
2022/08/25 02:15:42;;;;;;;15.10;8.17;;;;;;;20.70;100.00;98654.63;4895889;29;20210;-81
2022/08/25 02:18:08;;;;;;;15.17;7.97;;;;;;;19.77;100.00;98463.47;4896079;29;20206;-81
2022/08/25 02:20:33;;;;;;;13.50;7.50;;;;;;;21.49;100.00;98744.84;4896575;29;20245;-81
2022/08/25 02:22:58;;;;;;;16.47;7.47;;;;;;;18.68;100.00;98313.63;4899964;29;20167;-82
2022/08/25 02:25:24;;;;;;;15.97;7.93;;;;;;;20.21;100.00;98569.31;4899836;29;20230;-82
2022/08/25 02:27:50;;;;;;;18.00;8.00;;;;;;;20.79;100.00;98687.13;4882809;29;20174;-81
2022/08/25 02:30:16;;;;;;;13.03;7.87;;;;;;;21.42;100.00;98797.28;4899949;29;20238;-83
2022/08/25 02:32:41;;;;;;;16.37;7.47;;;;;;;20.79;100.00;98680.28;4899697;29;20547;-81
2022/08/25 02:35:07;;;;;;;14.70;7.10;;;;;;;20.18;100.00;98594.16;4899867;29;20211;-81
2022/08/25 02:37:34;;;;;;;14.33;6.53;;;;;;;21.37;100.00;98791.31;4899354;29;20193;-82
2022/08/25 02:39:59;;;;;;;14.03;6.63;;;;;;;19.06;100.00;98425.41;4899640;29;20289;-81
2022/08/25 02:42:26;;;;;;;14.00;6.87;;;;;;;20.06;100.00;98566.84;4899625;29;20246;-80
2022/08/25 02:44:51;;;;;;;15.70;6.20;;;;;;;19.80;100.00;98491.69;4882918;29;20644;-81
2022/08/25 02:47:17;;;;;;;14.87;6.17;;;;;;;20.31;100.00;98573.53;4899842;29;20166;-81
2022/08/25 02:49:42;;;;;;;11.27;5.50;;;;;;;19.97;100.00;98511.22;4899703;29;20167;-81
2022/08/25 02:52:08;;;;;;;14.80;5.47;;;;;;;21.65;100.00;98803.06;4899408;29;20163;-80
2022/08/25 02:54:34;;;;;;;12.27;5.00;;;;;;;21.32;100.00;98754.44;4899160;29;20194;-80
2022/08/25 02:57:00;;;;;;;9.63;5.20;;;;;;;18.15;100.00;98206.31;4898865;29;20193;-81
2022/08/25 02:59:26;;;;;;;7.87;5.13;;;;;;;18.49;100.00;98293.22;4898742;29;20238;-81
2022/08/25 03:01:51;;;;;;;10.60;5.60;;;;;;;20.04;100.00;98537.72;4899613;29;20171;-81
2022/08/25 03:04:17;;;;;;;12.63;5.40;;;;;;;18.59;100.00;98290.63;4899414;29;20181;-81
2022/08/25 03:06:42;;;;;;;14.13;5.70;;;;;;;20.36;100.00;98584.63;4899247;29;20206;-81
2022/08/25 03:09:08;;;;;;;9.27;5.13;;;;;;;18.13;100.00;98213.13;4882221;29;20182;-81
2022/08/25 03:11:34;;;;;;;11.97;5.30;;;;;;;19.26;100.00;98378.22;4898891;29;20238;-80
2022/08/25 03:13:59;;;;;;;11.37;5.23;;;;;;;19.68;100.00;98458.38;4898636;29;20186;-80
2022/08/25 03:16:25;;;;;;;12.30;5.13;;;;;;;19.21;100.00;98404.78;4899048;29;20234;-80
2022/08/25 03:18:50;;;;;;;9.23;4.90;;;;;;;20.18;100.00;98564.19;4882345;29;20186;-80
2022/08/25 03:21:16;;;;;;;12.40;5.10;;;;;;;21.08;100.00;98716.06;4898732;29;20602;-80
2022/08/25 03:23:43;;;;;;;9.97;5.23;;;;;;;20.21;100.00;98589.88;4898683;29;20202;-80
2022/08/25 03:28:54;;;;;;;12.80;5.30;;;;;;;20.25;100.00;98614.69;4899148;29;20227;-80
2022/08/25 03:31:21;;;;;;;14.83;5.63;;;;;;;21.15;100.00;98754.59;4898321;29;20179;-80
2022/08/25 03:33:47;;;;;;;9.80;5.33;;;;;;;20.06;100.00;98610.53;4898568;29;20182;-80
2022/08/25 03:36:12;;;;;;;13.27;5.53;;;;;;;20.74;100.00;98750.66;4898679;29;20179;-81
2022/08/25 03:38:39;;;;;;;12.57;5.60;;;;;;;20.72;100.00;98732.63;4898793;29;20163;-80
2022/08/25 03:41:24;;;;;;;12.47;5.73;;;;;;;20.48;100.00;98687.38;4904644;29;20175;-80
2022/08/25 03:43:50;;;;;;;14.50;5.87;;;;;;;20.94;100.00;98777.06;4907336;29;20242;-80
2022/08/25 03:46:21;;;;;;;11.07;5.80;;;;;;;21.06;100.00;98785.56;4899835;29;20194;-79
2022/08/25 03:48:47;;;;;;;13.83;6.00;;;;;;;20.38;100.00;98696.00;4898797;29;20166;-80
2022/08/25 03:51:18;;;;;;;13.17;6.00;;;;;;;20.31;100.00;98683.22;4898525;29;20174;-81
2022/08/25 03:53:44;;;;;;;12.27;5.40;;;;;;;19.23;100.00;98524.50;4898273;29;20210;-82
2022/08/25 03:56:09;;;;;;;10.53;5.30;;;;;;;19.94;100.00;98636.31;4899802;29;20627;-82
2022/08/25 03:58:35;;;;;;;11.03;5.60;;;;;;;19.21;100.00;98498.00;4900610;29;20254;-81
2022/08/25 04:01:00;;;;;;;11.40;5.63;;;;;;;19.95;100.00;98617.44;4899539;29;20254;-81
2022/08/25 04:03:26;;;;;;;11.57;5.73;;;;;;;17.79;100.00;98239.75;4898792;29;20174;-83
2022/08/25 04:05:51;;;;;;;13.03;6.07;;;;;;;19.36;100.00;98521.06;4898379;29;20210;-81
2022/08/25 04:08:18;;;;;;;10.97;5.50;;;;;;;17.76;100.00;98237.19;4898032;29;20199;-83
2022/08/25 04:10:43;;;;;;;11.63;5.63;;;;;;;18.50;100.00;98365.00;4902550;29;20229;-81
2022/08/25 04:13:10;;;;;;;8.57;5.30;;;;;;;20.86;100.00;98789.13;4916800;29;20714;-80
2022/08/25 04:15:36;;;;;;;9.30;5.43;;;;;;;20.77;100.00;98791.75;4913121;29;20207;-81
2022/08/25 04:18:02;;;;;;;12.50;5.47;;;;;;;20.66;100.00;98727.53;4898328;29;20213;-81
2022/08/25 04:20:27;;;;;;;9.00;5.50;;;;;;;19.39;100.00;98507.38;4897820;29;20207;-81
2022/08/25 04:22:54;;;;;;;8.27;4.83;;;;;;;20.46;100.00;98668.53;4897837;29;20171;-79
2022/08/25 04:25:19;;;;;;;11.20;4.83;;;;;;;19.48;100.00;98501.31;4897668;29;20174;-79
2022/08/25 04:27:45;;;;;;;11.10;4.80;;;;;;;20.91;100.00;98728.19;4897939;29;20171;-80
2022/08/25 04:30:11;;;;;;;8.73;4.60;;;;;;;19.52;100.00;98485.03;4897957;29;20257;-81
2022/08/25 04:32:36;;;;;;;10.50;4.70;;;;;;;21.40;100.00;98804.16;4900049;29;20581;-81
2022/08/25 04:35:03;;;;;;;10.17;4.50;;;;;;;20.15;100.00;98577.06;4886038;29;20189;-80
2022/08/25 04:37:28;;;;;;;6.57;4.10;;;;;;;20.75;100.00;98680.28;4905696;29;20656;-80
2022/08/25 04:39:53;;;;;;;8.07;4.37;;;;;;;21.59;100.00;98791.97;4906508;29;20285;-81
2022/08/25 04:42:20;;;;;;;11.77;4.40;;;;;;;19.62;100.00;98443.00;4902056;29;20174;-80
2022/08/25 04:44:45;;;;;;;9.03;4.37;;;;;;;21.61;100.00;98795.38;4904943;29;20177;-80
2022/08/25 04:47:11;;;;;;;8.63;4.30;;;;;;;21.58;100.00;98749.91;4892334;29;20226;-81
2022/08/25 04:49:36;;;;;;;8.27;4.17;;;;;;;21.28;100.00;98696.13;4903286;29;20201;-80
2022/08/25 04:52:02;;;;;;;10.07;4.30;;;;;;;21.63;100.00;98706.91;4902881;29;20190;-81
2022/08/25 04:54:27;;;;;;;9.10;4.40;;;;;;;22.26;100.00;98792.94;4886858;29;20196;-81
2022/08/25 04:56:53;;;;;;;9.40;4.50;;;;;;;22.09;100.00;98773.38;4910733;29;20185;-81
2022/08/25 04:59:18;;;;;;;8.40;4.43;;;;;;;22.24;100.00;98786.09;4896203;29;20290;-81
2022/08/25 05:01:45;;;;;;;6.23;4.27;;;;;;;21.75;100.00;98706.75;4895596;29;20270;-81
2022/08/25 05:04:13;;;;;;;11.87;4.97;;;;;;;22.33;100.00;98776.50;4897955;29;20186;-80
2022/08/25 05:06:39;;;;;;;11.87;4.53;;;;;;;22.19;100.00;98750.06;4894928;29;20186;-81
2022/08/25 05:09:05;;;;;;;13.67;5.23;;;;;;;22.19;100.00;98718.25;4894714;29;20233;-79
2022/08/25 05:11:31;;;;;;;10.07;4.67;;;;;;;21.97;100.00;98684.19;4896145;29;20619;-80
2022/08/25 05:13:59;;;;;;;13.03;6.33;;;;;;;21.98;100.00;98647.19;4895131;29;20186;-79
2022/08/25 05:16:25;;;;;;;15.87;9.80;;;;;;;22.88;100.00;98776.56;4888198;29;20785;-80
2022/08/25 05:18:52;;;;;;;13.13;5.20;;;;;;;22.34;100.00;98625.19;4892744;29;20182;-82
2022/08/25 05:21:21;;;;;;;9.10;5.17;;;;;;;23.00;100.00;98754.03;4894457;29;20695;-80
2022/08/25 05:23:47;;;;;;;11.80;5.03;;;;;;;23.17;100.00;98732.22;4894972;29;20187;-80
2022/08/25 05:26:16;;;;;;;13.27;6.10;;;;;;;21.67;100.00;98475.84;4894846;29;20175;-81
2022/08/25 05:28:41;;;;;;;11.40;6.10;;;;;;;21.73;100.00;98507.50;4894214;29;20723;-83
2022/08/25 05:31:09;;;;;;;11.83;6.00;;;;;;;21.35;98.76;98375.91;4895118;29;20335;-81
2022/08/25 05:33:36;;;;;;;13.33;6.10;;;;;;;23.01;99.03;98662.78;4894623;29;20179;-80
2022/08/25 05:36:02;;;;;;;10.80;5.87;;;;;;;22.35;98.59;98539.19;4895058;29;20273;-83
2022/08/25 05:38:28;;;;;;;13.50;6.73;;;;;;;21.87;98.00;98445.47;4894785;29;20191;-82
2022/08/25 05:40:58;;;;;;;14.17;6.73;;;;;;;22.03;96.89;98459.81;4894792;29;20606;-81
2022/08/25 05:43:24;;;;;;;10.03;6.43;;;;;;;23.74;95.83;98707.03;4894840;29;20221;-80
2022/08/25 05:45:53;;;;;;;12.63;6.70;;;;;;;22.91;96.66;98582.91;4885994;29;20687;-81
2022/08/25 05:48:21;;;;;;;16.97;7.73;;;;;;;22.84;94.47;98545.22;4894222;29;20237;-80
2022/08/25 05:50:55;;;;;;;18.40;8.07;;;;;;;21.44;94.12;98298.50;4893992;29;20193;-81
2022/08/25 05:53:21;;;;;;;17.43;8.50;;;;;;;21.17;93.31;98232.91;4894642;29;20663;-82
2022/08/25 05:55:49;;;;;;;16.93;8.27;;;;;;;23.09;92.08;98511.16;4894690;29;20583;-81
2022/08/25 05:58:14;;;;;;;14.20;8.27;;;;;;;23.39;92.26;98536.38;4893698;29;20270;-82
2022/08/25 06:00:40;;;;;;;18.77;8.43;;;;;;;23.27;92.52;98534.00;4894115;29;20269;-82
2022/08/25 06:03:06;;;;;;;17.03;9.00;;;;;;;24.68;92.59;98785.22;4894556;29;20254;-81
2022/08/25 06:05:32;;;;;;;18.37;9.13;;;;;;;24.52;92.59;98714.00;4894492;29;20182;-82
2022/08/25 06:07:58;;;;;;;16.63;9.83;;;;;;;23.42;92.36;98577.66;4894030;29;20579;-81
2022/08/25 06:10:24;;;;;;;16.73;9.70;;;;;;;24.24;94.00;98712.91;4894099;29;20197;-82
2022/08/25 06:12:50;;;;;;;13.90;8.53;;;;;;;23.16;92.32;98489.47;4894169;29;20659;-83
2022/08/25 06:15:18;;;;;;;18.73;9.43;;;;;;;24.93;92.26;98785.53;4894502;29;20195;-82
2022/08/25 06:17:45;;;;;;;16.90;10.00;;;;;;;23.53;91.31;98500.75;4893627;29;20202;-82
2022/08/25 06:20:31;;;;;;;18.73;9.07;;;;;;;24.82;90.04;98695.19;4893942;29;20214;-82
2022/08/25 06:22:57;;;;;;;21.63;10.37;;;;;;;24.20;91.02;98607.81;4894232;29;20194;-82
2022/08/25 06:25:25;;;;;;;20.37;11.03;;;;;;;24.89;89.54;98682.91;4894049;29;20451;-82
2022/08/25 06:27:50;;;;;;;20.40;10.73;;;;;;;24.40;89.90;98571.94;4893945;29;20577;-82
2022/08/25 06:30:22;;;;;;;19.50;10.93;;;;;;;23.89;88.59;98499.91;4893982;29;20242;-82
2022/08/25 06:32:48;;;;;;;19.03;10.83;;;;;;;25.43;88.75;98706.53;4894230;29;20195;-81
2022/08/25 06:35:17;;;;;;;17.07;10.50;;;;;;;22.89;88.90;98279.25;4894691;29;20191;-82
2022/08/25 06:37:43;;;;;;;19.58;10.48;;;;;;;24.19;89.35;98507.81;4894160;29;20265;-83
2022/08/25 06:40:10;;;;;;;20.73;10.30;;;;;;;24.45;88.78;98552.81;4894998;29;20214;-83
2022/08/25 06:42:36;;;;;;;20.65;11.65;;;;;;;23.73;88.62;98446.88;4898571;29;20215;-81
2022/08/25 06:45:03;;;;;;;21.73;11.23;;;;;;;24.27;89.01;98540.38;4883657;29;20190;-81
2022/08/25 06:47:28;;;;;;;21.65;12.48;;;;;;;24.28;89.95;98560.16;4887737;29;20247;-82
2022/08/25 06:49:54;;;;;;;16.37;10.20;;;;;;;22.28;89.22;98233.31;4893279;29;20679;-82
2022/08/25 06:52:19;;;;;;;22.80;12.73;;;;;;;24.33;88.68;98527.28;4888518;29;20195;-82
2022/08/25 06:54:45;;;;;;;23.77;12.48;;;;;;;25.46;87.69;98647.69;4892611;29;20206;-81
2022/08/25 06:57:10;;;;;;;25.38;12.85;;;;;;;26.16;87.61;98767.63;4893452;29;20179;-82
2022/08/25 06:59:37;;;;;;;21.65;12.13;;;;;;;26.05;87.06;98691.81;4892880;29;20227;-81
2022/08/25 07:02:04;;;;;;;27.13;12.60;;;;;;;25.91;86.30;98658.50;4894180;29;20243;-81
2022/08/25 07:04:30;;;;;;;25.33;13.55;;;;;;;24.19;86.31;98389.69;4893311;29;20727;-81
2022/08/25 07:06:55;;;;;;;29.27;13.77;;;;;;;26.63;86.13;98768.78;4894749;29;20579;-83
2022/08/25 07:09:21;;;;;;;27.05;13.73;;;;;;;26.65;86.88;98754.00;4896395;29;20196;-84
2022/08/25 07:11:46;;;;;;;24.00;12.13;;;;;;;26.48;84.40;98744.16;4893740;29;20288;-83
2022/08/25 07:14:15;;;;;;;25.50;14.32;;;;;;;26.53;85.03;98716.31;4895618;29;20280;-84
2022/08/25 07:16:43;;;;;;;26.27;14.50;;;;;;;26.59;84.14;98710.91;4897247;29;20661;-86
2022/08/25 07:19:10;;;;;;;26.10;14.68;;;;;;;26.32;84.65;98663.31;4896619;29;20220;-80
2022/08/25 07:21:37;;;;;;;20.17;12.82;;;;;;;26.20;84.27;98687.06;4896977;29;20260;-82
2022/08/25 07:24:11;;;;;;;28.95;15.10;;;;;;;26.86;84.27;98733.44;4896278;29;20188;-82
2022/08/25 07:26:40;;;;;;;29.88;15.10;;;;;;;27.17;82.60;98694.28;4896333;29;20692;-81
2022/08/25 07:29:16;;;;;;;25.33;14.35;;;;;;;27.49;82.83;98742.59;4896239;29;20192;-81
2022/08/25 07:31:42;;;;;;;30.27;14.88;;;;;;;27.09;81.77;98711.88;4896649;29;20559;-81
2022/08/25 07:36:53;;;;;;;23.10;12.90;;;;;;;26.43;83.44;98682.88;4897921;29;20769;-82
2022/08/25 07:39:18;;;;;;;29.52;14.73;;;;;;;27.20;81.61;98709.78;4897000;29;20258;-82
2022/08/25 07:41:44;;;;;;;28.15;14.25;;;;;;;27.84;80.84;98764.75;4896324;29;20190;-82
2022/08/25 07:44:11;;;;;;;26.90;14.32;;;;;;;27.37;80.34;98686.66;4892525;29;20264;-82
2022/08/25 07:46:37;;;;;;;28.75;14.98;;;;;;;26.38;80.62;98483.16;4889353;29;20328;-86
2022/08/25 07:49:03;;;;;;;24.00;13.63;;;;;;;27.83;79.04;98724.88;4876264;29;20193;-82
2022/08/25 07:51:29;;;;;;;21.83;12.98;;;;;;;26.64;79.27;98562.75;4878439;29;20183;-81
2022/08/25 07:53:54;;;;;;;25.30;13.95;;;;;;;26.67;78.30;98495.13;4881179;29;20236;-82
2022/08/25 07:56:20;;;;;;;25.95;14.18;;;;;;;26.38;77.94;98460.66;4896685;29;20200;-83
2022/08/25 07:58:46;;;;;;;28.30;13.88;;;;;;;28.37;77.07;98755.84;4895441;29;20265;-81
2022/08/25 08:01:15;;;;;;;30.05;13.05;;;;;;;26.22;77.29;98385.97;4896002;29;20187;-82
2022/08/25 08:03:41;;;;;;;23.52;12.70;;;;;;;27.93;77.99;98701.97;4896875;29;20283;-82
2022/08/25 08:06:09;;;;;;;30.15;14.63;;;;;;;28.26;76.76;98673.84;4896290;29;20188;-83
2022/08/25 08:08:43;;;;;;;29.73;14.10;;;;;;;29.16;75.13;98752.69;4895080;29;20186;-83
2022/08/25 08:11:18;;;;;;;28.90;13.90;;;;;;;28.30;75.02;98704.03;4895033;29;20208;-82
2022/08/25 08:13:46;;;;;;;24.77;13.77;;;;;;;28.66;75.07;98768.63;4895189;29;20582;-82
2022/08/25 08:16:14;;;;;;;28.63;13.80;;;;;;;28.91;72.25;98744.16;4895011;29;20194;-83
2022/08/25 08:18:42;;;;;;;28.25;13.00;;;;;;;29.62;69.83;98749.00;4893517;29;20210;-82
2022/08/25 08:21:17;;;;;;;27.98;13.00;;;;;;;28.04;70.98;98541.94;4877986;29;20207;-82
2022/08/25 08:23:43;;;;;;;30.83;13.20;;;;;;;29.53;69.59;98765.88;4895179;29;20197;-82
2022/08/25 08:26:09;;;;;;;25.00;13.30;;;;;;;29.27;71.11;98714.00;4895740;29;20269;-82
2022/08/25 08:28:34;;;;;;;28.75;11.85;;;;;;;29.54;69.37;98746.72;4894876;29;20310;-83
2022/08/25 08:31:00;;;;;;;32.17;13.40;;;;;;;29.25;69.78;98734.91;4895078;29;20182;-82
2022/08/25 08:33:26;;;;;;;24.25;11.50;;;;;;;29.04;68.34;98680.19;4895476;29;20558;-82
2022/08/25 08:36:00;;;;;;;32.72;11.93;;;;;;;28.45;68.13;98568.88;4894378;29;20268;-82
2022/08/25 08:38:26;;;;;;;28.40;12.82;;;;;;;29.33;70.04;98718.97;4893262;29;20265;-82
2022/08/25 08:43:58;;;;;;;31.08;12.35;;;;;;;28.84;69.56;98669.78;4895844;29;20301;-83
2022/08/25 08:46:35;;;;;;;31.45;12.80;;;;;;;29.76;67.85;98747.47;4895022;29;20272;-82
2022/08/25 08:49:22;;;;;;;29.27;12.93;;;;;;;29.00;69.12;98597.84;4893904;29;20213;-82
2022/08/25 08:51:55;;;;;;;30.13;11.50;;;;;;;28.66;68.47;98609.69;4894876;29;20194;-82
2022/08/25 08:54:24;;;;;;;24.98;10.85;;;;;;;28.10;68.49;98551.25;4895214;29;20213;-83
2022/08/25 08:57:02;;;;;;;27.50;11.95;;;;;;;29.16;68.29;98627.53;4894856;29;20601;-82
2022/08/25 09:00:07;;;;;;;28.48;11.68;;;;;;;29.77;66.70;98761.38;4895302;29;20309;-83
2022/08/25 09:03:26;;;;;;;28.55;11.77;;;;;;;29.99;66.26;98712.56;4823216;29;20690;-83
2022/08/25 09:05:55;;;;;;;30.65;11.55;;;;;;;29.32;65.57;98594.69;4751824;30;20308;-82
2022/08/25 09:08:20;;;;;;;29.23;11.68;;;;;;;30.37;65.81;98753.44;4770120;29;20199;-85
2022/08/25 09:10:48;;;;;;;31.20;11.57;;;;;;;29.98;65.66;98770.03;4781753;29;20197;-83
2022/08/25 09:13:19;;;;;;;25.27;12.00;;;;;;;30.06;66.24;98775.75;4772966;30;20360;-83
2022/08/25 09:18:53;;;;;;;31.65;10.50;;;;;;;30.15;62.94;98767.53;4765420;30;20213;-81
2022/08/25 09:21:31;;;;;;;31.75;10.60;;;;;;;30.19;63.21;98759.47;4782709;29;20213;-82
2022/08/25 09:24:06;;;;;;;26.42;9.57;;;;;;;29.91;63.37;98758.19;4782079;29;20195;-82
2022/08/25 09:26:42;;;;;;;28.60;10.90;;;;;;;29.20;62.93;98603.84;4782485;29;20644;-82
2022/08/25 09:29:13;;;;;;;35.22;10.95;;;;;;;29.05;63.70;98525.47;4783735;29;20213;-83
2022/08/25 09:31:41;;;;;;;31.55;10.05;;;;;;;30.07;62.03;98675.63;4783735;29;20205;-83
2022/08/25 09:34:16;;;;;;;34.83;10.35;;;;;;;28.91;62.26;98548.69;4776017;29;20210;-83
2022/08/25 09:36:41;;;;;;;23.60;8.75;;;;;;;29.33;62.54;98656.38;4765735;30;20200;-82
2022/08/25 09:39:07;;;;;;;36.25;10.38;;;;;;;30.53;61.91;98748.34;4795494;29;20212;-82
2022/08/25 09:41:51;;;;;;;30.33;9.95;;;;;;;29.76;60.67;98630.03;4871452;29;20204;-83
2022/08/25 09:44:24;;;;;;;33.17;9.88;;;;;;;30.74;58.20;98692.41;4896327;29;20200;-82
2022/08/25 09:47:06;;;;;;;28.85;9.20;;;;;;;31.39;57.82;98735.38;4901455;29;20190;-82
2022/08/25 09:49:41;;;;;;;30.25;9.00;;;;;;;31.52;57.84;98731.22;4902211;29;20297;-82
2022/08/25 09:52:27;;;;;;;33.17;8.60;;;;;;;31.47;55.97;98730.63;4897054;29;20210;-83
2022/08/25 09:54:54;;;;;;;40.30;8.48;;;;;;;31.15;52.57;98590.16;4896908;29;20180;-83
2022/08/25 09:57:34;;;;;;;33.90;7.40;;;;;;;30.92;51.57;98515.53;4896819;29;20179;-83
2022/08/25 10:00:09;;;;;;;39.05;8.40;;;;;;;32.81;51.60;98701.44;4896639;29;20194;-83
2022/08/25 10:02:34;;;;;;;34.65;8.45;;;;;;;31.63;52.94;98660.00;4896582;29;20166;-83
2022/08/25 10:05:16;;;;;;;29.90;8.10;;;;;;;30.98;54.92;98700.00;4896724;29;20223;-83
2022/08/25 10:07:50;;;;;;;36.03;8.73;;;;;;;30.49;55.75;98594.41;4896778;29;20169;-83
2022/08/25 10:10:23;;;;;;;39.03;9.68;;;;;;;31.47;55.09;98697.47;4897186;29;20163;-83
2022/08/25 10:12:48;;;;;;;34.65;9.57;;;;;;;29.86;55.87;98499.16;4896734;29;20180;-82
2022/08/25 10:15:25;;;;;;;37.47;9.63;;;;;;;30.53;54.78;98452.22;4896374;29;20170;-83
2022/08/25 10:17:51;;;;;;;39.88;9.05;;;;;;;30.68;53.58;98475.81;4895625;29;20789;-84
2022/08/25 10:20:34;;;;;;;26.55;8.07;;;;;;;31.79;52.06;98614.56;4896802;29;20190;-83
2022/08/25 10:23:13;;;;;;;28.95;7.72;;;;;;;31.65;50.33;98567.38;4896436;29;20184;-82
2022/08/25 10:25:46;;;;;;;29.55;8.27;;;;;;;29.85;50.67;98283.44;4895972;29;20166;-83
2022/08/25 10:28:22;;;;;;;37.75;8.27;;;;;;;30.39;51.93;98380.63;4872041;29;20242;-83
2022/08/25 10:31:08;;;;;;;32.35;8.35;;;;;;;32.56;51.95;98672.31;4892338;29;20202;-84
2022/08/25 10:33:33;;;;;;;29.08;7.13;;;;;;;32.11;50.44;98665.22;4892961;29;20190;-84
2022/08/25 10:36:20;;;;;;;32.22;7.25;;;;;;;32.08;49.74;98674.06;4892741;29;20203;-83
2022/08/25 10:38:54;;;;;;;35.95;7.88;;;;;;;32.25;48.42;98551.81;4892000;29;20197;-84
2022/08/25 10:41:59;;;;;;;37.90;7.93;;;;;;;33.52;46.94;98678.81;4874274;29;20203;-83
2022/08/25 10:47:52;;;;;;;37.63;7.25;;;;;;;32.85;45.49;98452.97;4877565;29;20258;-83
2022/08/25 10:50:28;;;;;;;29.08;7.43;;;;;;;33.12;46.97;98662.03;4889562;29;20732;-83
2022/08/25 10:53:13;;;;;;;31.08;7.65;;;;;;;33.67;46.24;98659.53;4895610;29;20194;-83
2022/08/25 10:55:56;;;;;;;29.40;7.35;;;;;;;33.30;47.31;98653.97;4895769;29;20573;-84
2022/08/25 10:58:46;;;;;;;26.33;7.53;;;;;;;32.74;48.69;98655.53;4895923;29;20337;-84
2022/08/25 11:01:18;;;;;;;34.38;7.85;;;;;;;32.76;48.08;98656.28;4877469;29;20230;-83
2022/08/25 11:03:51;;;;;;;33.13;8.60;;;;;;;32.02;48.33;98580.16;4879501;29;20695;-83
2022/08/25 11:06:22;;;;;;;31.50;7.40;;;;;;;31.92;47.48;98583.34;4879747;29;20179;-84
2022/08/25 11:08:55;;;;;;;33.05;8.73;;;;;;;31.93;47.64;98528.25;4879991;29;20195;-84
2022/08/25 11:11:53;;;;;;;26.33;7.60;;;;;;;32.92;46.19;98657.06;4898222;29;20924;-83
2022/08/25 11:14:28;;;;;;;30.02;7.50;;;;;;;30.75;46.42;98257.59;4821734;29;20208;-83
2022/08/25 11:17:00;;;;;;;27.60;7.10;;;;;;;31.57;46.21;98388.97;4821954;29;20283;-84
2022/08/25 11:19:38;;;;;;;31.95;6.70;;;;;;;31.85;45.83;98389.06;4814766;29;20251;-84
2022/08/25 11:22:32;;;;;;;31.75;7.32;;;;;;;31.82;45.85;98315.94;4803132;29;20222;-83
2022/08/25 11:25:13;;;;;;;26.85;6.90;;;;;;;31.14;44.77;98191.78;4803821;29;20206;-84
2022/08/25 11:27:44;;;;;;;39.63;7.68;;;;;;;34.21;43.81;98642.09;4803399;29;20276;-83
2022/08/25 11:30:27;;;;;;;37.63;9.80;;;;;;;31.82;44.38;98213.84;4795501;29;20262;-83
2022/08/25 11:32:55;;;;;;;27.88;7.30;;;;;;;32.83;43.85;98294.84;4809424;29;20204;-83
2022/08/25 11:36:07;;;;;;;38.90;7.38;;;;;;;34.59;43.81;98630.88;4817809;29;20263;-84
2022/08/25 11:38:45;;;;;;;33.10;7.88;;;;;;;34.73;43.49;98641.34;4803368;29;20237;-85
2022/08/25 11:41:39;;;;;;;36.47;7.15;;;;;;;31.31;44.62;98257.03;4802331;29;20327;-85
2022/08/25 11:44:42;;;;;;;;;;;;;;;;;;;;;
2022/08/25 11:47:20;;;;;;;29.67;6.40;;;;;;;31.05;45.55;98299.50;4803509;29;20181;-84
2022/08/25 11:50:10;;;;;;;23.35;6.57;;;;;;;32.68;44.91;98438.28;4791004;29;20254;-85